Time;durP1;ratioP1;P1;durP2;ratioP2;P2;SDS_P1;SDS_P2;PMS_P1;PMS_P2;Temp;Humidity;BMP_temperature;BMP_pressure;BME280_temperature;BME280_humidity;BME280_pressure;Samples;Min_cycle;Max_cycle;Signal;HPM_P1;HPM_P2
2022/05/06 00:01:37;;;;;;;28.48;23.83;;;;;;;14.67;67.68;100597.38;5033908;28;20068;-88
2022/05/06 00:04:03;;;;;;;27.35;24.00;;;;;;;14.67;67.05;100592.84;5033578;28;20021;-88
2022/05/06 00:06:29;;;;;;;26.25;22.95;;;;;;;14.72;67.40;100587.03;5033039;28;20033;-88
2022/05/06 00:08:55;;;;;;;28.23;23.95;;;;;;;14.64;67.39;100590.44;5033416;28;20083;-88
2022/05/06 00:11:21;;;;;;;29.38;24.67;;;;;;;14.66;67.34;100585.78;5037606;28;20029;-88
2022/05/06 00:13:46;;;;;;;27.23;23.65;;;;;;;14.61;67.35;100588.03;5053054;28;20045;-87
2022/05/06 00:16:12;;;;;;;28.38;24.40;;;;;;;14.52;67.63;100597.00;5053030;28;20032;-86
2022/05/06 00:18:37;;;;;;;26.00;22.70;;;;;;;14.56;67.64;100598.41;5036281;28;20021;-88
2022/05/06 00:21:03;;;;;;;25.95;22.42;;;;;;;14.60;67.45;100593.56;5036575;28;20033;-89
2022/05/06 00:23:28;;;;;;;27.92;23.73;;;;;;;14.46;67.22;100598.44;5026965;28;20030;-88
2022/05/06 00:25:53;;;;;;;27.40;23.50;;;;;;;14.45;67.39;100598.59;5036564;28;20470;-87
2022/05/06 00:28:21;;;;;;;29.35;24.27;;;;;;;14.44;67.65;100602.28;5053051;28;20028;-88
2022/05/06 00:30:47;;;;;;;27.38;23.42;;;;;;;14.42;67.53;100604.22;5052923;28;20106;-85
2022/05/06 00:33:13;;;;;;;26.83;23.40;;;;;;;14.40;67.44;100601.69;5052648;28;20431;-88
2022/05/06 00:35:40;;;;;;;27.77;23.77;;;;;;;14.38;67.25;100600.97;5052921;28;20033;-85
2022/05/06 00:38:05;;;;;;;28.23;24.75;;;;;;;14.36;68.03;100602.13;5036079;28;20104;-89
2022/05/06 00:40:30;;;;;;;26.98;22.90;;;;;;;14.27;67.39;100600.31;5053888;28;20538;-87
2022/05/06 00:42:56;;;;;;;26.33;23.45;;;;;;;14.27;67.63;100597.63;5036065;28;20028;-89
2022/05/06 00:45:25;;;;;;;27.88;23.45;;;;;;;14.26;67.12;100598.63;5052577;28;20028;-89
2022/05/06 00:47:51;;;;;;;27.08;22.52;;;;;;;14.18;67.20;100608.22;5035767;28;20033;-86
2022/05/06 00:50:17;;;;;;;26.17;23.48;;;;;;;14.20;67.46;100599.19;5052366;28;20032;-89
2022/05/06 00:52:42;;;;;;;26.48;23.40;;;;;;;14.21;67.04;100599.06;5035753;28;20021;-87
2022/05/06 00:55:09;;;;;;;26.98;22.73;;;;;;;14.20;67.26;100600.06;5035841;28;20079;-86
2022/05/06 00:57:34;;;;;;;27.58;23.17;;;;;;;14.20;67.31;100615.34;5035721;28;20143;-88
2022/05/06 01:00:19;;;;;;;26.73;22.48;;;;;;;14.15;67.63;100611.22;5052339;28;20447;-84
2022/05/06 01:02:45;;;;;;;27.73;23.90;;;;;;;14.11;67.08;100606.28;5038168;28;20060;-88
2022/05/06 01:05:14;;;;;;;28.13;23.75;;;;;;;14.08;67.43;100604.72;5035659;28;20021;-87
2022/05/06 01:07:41;;;;;;;26.60;22.92;;;;;;;14.10;67.16;100610.81;5035070;28;20474;-87
2022/05/06 01:10:07;;;;;;;28.17;24.38;;;;;;;14.21;67.40;100612.50;5035482;28;20033;-87
2022/05/06 01:12:32;;;;;;;28.25;23.95;;;;;;;14.23;66.91;100602.44;5035224;28;20490;-88
2022/05/06 01:14:58;;;;;;;28.23;23.65;;;;;;;14.12;67.18;100610.66;5035432;28;20160;-86
2022/05/06 01:17:23;;;;;;;26.55;23.73;;;;;;;14.08;67.28;100617.31;5035072;28;20044;-87
2022/05/06 01:19:48;;;;;;;27.10;22.60;;;;;;;14.08;67.67;100615.47;5051978;28;20044;-87
2022/05/06 01:22:14;;;;;;;27.40;23.60;;;;;;;14.06;67.25;100612.09;5035219;28;20033;-87
2022/05/06 01:24:40;;;;;;;28.33;23.90;;;;;;;14.16;66.76;100612.06;5035112;28;20111;-88
2022/05/06 01:27:11;;;;;;;30.67;25.13;;;;;;;14.18;67.44;100613.63;5034963;28;20111;-87
2022/05/06 01:29:37;;;;;;;31.30;26.10;;;;;;;14.15;67.31;100613.91;5034919;28;20530;-86
2022/05/06 01:32:03;;;;;;;30.45;25.17;;;;;;;14.12;67.52;100610.66;5051873;28;20032;-87
2022/05/06 01:34:29;;;;;;;31.67;25.23;;;;;;;14.01;67.38;100621.59;5050815;28;20025;-88
2022/05/06 01:36:58;;;;;;;28.13;24.65;;;;;;;13.98;67.49;100611.13;5034494;28;20029;-89
2022/05/06 01:39:29;;;;;;;29.23;24.17;;;;;;;13.89;67.05;100615.50;5034789;28;20025;-86
2022/05/06 01:41:58;;;;;;;29.75;24.40;;;;;;;13.91;67.29;100610.00;5034944;28;20068;-88
2022/05/06 01:44:25;;;;;;;27.33;23.08;;;;;;;13.92;67.39;100604.47;5034854;28;20028;-88
2022/05/06 01:46:52;;;;;;;28.23;24.35;;;;;;;13.88;67.14;100616.50;5034557;28;20486;-87
2022/05/06 01:49:18;;;;;;;27.90;23.98;;;;;;;13.85;67.72;100601.50;5051411;28;20075;-87
2022/05/06 01:51:44;;;;;;;30.13;25.48;;;;;;;13.80;67.61;100609.16;5034551;28;20021;-89
2022/05/06 01:54:09;;;;;;;29.00;24.02;;;;;;;13.79;67.38;100615.53;5034700;28;20084;-88
2022/05/06 01:56:35;;;;;;;28.00;24.70;;;;;;;13.80;67.06;100616.38;5051196;28;20111;-87
2022/05/06 01:59:01;;;;;;;28.15;24.58;;;;;;;13.89;67.31;100615.50;5034378;28;20029;-88
2022/05/06 02:01:26;;;;;;;29.00;25.20;;;;;;;13.93;67.72;100611.53;5051507;28;20113;-85
2022/05/06 02:06:35;;;;;;;28.83;24.25;;;;;;;13.84;66.92;100610.56;5051324;28;20036;-89
2022/05/06 02:09:01;;;;;;;30.38;25.80;;;;;;;13.62;67.50;100612.69;5034117;28;20017;-88
2022/05/06 02:11:26;;;;;;;30.45;24.85;;;;;;;13.55;68.12;100609.72;5050681;28;20029;-86
2022/05/06 02:13:51;;;;;;;32.47;26.10;;;;;;;13.35;67.82;100608.00;5051004;28;20123;-88
2022/05/06 02:16:17;;;;;;;29.80;24.73;;;;;;;13.43;67.67;100610.84;5034832;28;20072;-87
2022/05/06 02:18:42;;;;;;;29.33;24.38;;;;;;;13.48;67.25;100612.09;5051053;28;20037;-88
2022/05/06 02:21:07;;;;;;;28.58;24.02;;;;;;;13.52;67.43;100616.22;5051068;28;20061;-86
2022/05/06 02:23:33;;;;;;;29.23;24.27;;;;;;;13.51;67.06;100609.13;5034183;28;20051;-85
2022/05/06 02:25:58;;;;;;;28.08;24.17;;;;;;;13.50;67.15;100603.91;5050652;28;20078;-84
2022/05/06 02:28:24;;;;;;;29.75;24.48;;;;;;;13.51;66.60;100603.75;5050644;28;20044;-86
2022/05/06 02:33:33;;;;;;;27.77;24.27;;;;;;;13.42;67.09;100603.75;5050773;28;20117;-85
2022/05/06 02:35:59;;;;;;;28.15;23.88;;;;;;;13.43;66.94;100603.63;5050699;28;20052;-87
2022/05/06 02:38:26;;;;;;;30.13;24.42;;;;;;;13.49;67.07;100607.59;5033777;28;20122;-88
2022/05/06 02:40:52;;;;;;;30.38;24.65;;;;;;;13.51;67.54;100614.50;5033729;28;20029;-85
2022/05/06 02:43:17;;;;;;;30.15;25.00;;;;;;;13.45;67.23;100606.16;5050502;28;20032;-85
2022/05/06 02:45:43;;;;;;;30.83;25.60;;;;;;;13.44;67.26;100615.22;5034482;28;20025;-88
2022/05/06 02:48:09;;;;;;;28.38;24.33;;;;;;;13.43;66.98;100618.91;5053728;28;20078;-87
2022/05/06 02:50:34;;;;;;;28.45;24.23;;;;;;;13.42;67.60;100609.13;5054664;28;20112;-86
2022/05/06 02:53:00;;;;;;;27.48;23.85;;;;;;;13.39;67.27;100612.09;5037756;28;20025;-85
2022/05/06 02:55:26;;;;;;;29.92;23.52;;;;;;;13.35;66.90;100602.63;5037642;28;20029;-85
2022/05/06 02:57:51;;;;;;;29.65;24.77;;;;;;;13.32;67.36;100602.91;5037524;28;20520;-86
2022/05/06 03:00:17;;;;;;;29.95;24.67;;;;;;;13.28;67.23;100606.88;5054414;28;20056;-86
2022/05/06 03:02:42;;;;;;;29.08;23.80;;;;;;;13.29;66.89;100604.03;5054266;28;20017;-87
2022/05/06 03:05:08;;;;;;;29.20;24.58;;;;;;;13.26;67.58;100604.31;5053962;28;20459;-85
2022/05/06 03:07:34;;;;;;;27.77;24.15;;;;;;;13.26;67.28;100601.63;5037154;28;20032;-85
2022/05/06 03:09:59;;;;;;;29.55;24.05;;;;;;;13.20;66.37;100608.38;5037336;28;20021;-86
2022/05/06 03:12:29;;;;;;;28.20;23.83;;;;;;;13.07;67.01;100606.91;5054026;28;20024;-86
2022/05/06 03:14:55;;;;;;;32.92;25.05;;;;;;;12.95;66.93;100610.69;5037677;28;20490;-86
2022/05/06 03:17:20;;;;;;;27.85;23.42;;;;;;;12.89;67.46;100612.09;5036680;28;20119;-87
2022/05/06 03:19:45;;;;;;;28.67;22.98;;;;;;;13.02;67.35;100615.38;5037357;28;20044;-87
2022/05/06 03:22:11;;;;;;;30.02;25.10;;;;;;;12.79;67.16;100605.84;5054111;28;20032;-85
2022/05/06 03:24:36;;;;;;;29.20;23.40;;;;;;;12.91;67.19;100613.66;5053708;28;20376;-86
2022/05/06 03:27:03;;;;;;;31.38;23.23;;;;;;;13.03;67.21;100611.72;5053387;28;20028;-86
2022/05/06 03:29:29;;;;;;;28.05;24.00;;;;;;;12.98;66.16;100615.78;5036794;28;20075;-86
2022/05/06 03:31:56;;;;;;;27.15;23.00;;;;;;;13.03;66.61;100618.91;5053546;28;20029;-85
2022/05/06 03:34:21;;;;;;;28.13;23.33;;;;;;;13.02;66.54;100614.53;5036902;28;20039;-86
2022/05/06 03:36:47;;;;;;;28.38;24.33;;;;;;;13.05;66.66;100616.94;5052981;28;20029;-85
2022/05/06 03:39:13;;;;;;;31.30;24.63;;;;;;;13.04;66.27;100618.78;5053184;28;20021;-86
2022/05/06 03:41:38;;;;;;;29.08;23.80;;;;;;;13.03;66.64;100619.75;5036362;28;20029;-85
2022/05/06 03:44:06;;;;;;;28.63;23.52;;;;;;;12.96;67.33;100613.25;5036572;28;20439;-84
2022/05/06 03:46:31;;;;;;;28.77;24.02;;;;;;;12.82;67.16;100613.63;5052624;28;20124;-85
2022/05/06 03:48:57;;;;;;;29.13;23.75;;;;;;;12.81;66.98;100611.94;5053143;28;20099;-85
2022/05/06 03:51:23;;;;;;;28.50;23.67;;;;;;;12.86;66.86;100615.06;5053153;28;20383;-84
2022/05/06 03:53:52;;;;;;;27.77;23.08;;;;;;;12.85;66.45;100605.31;5053126;28;20032;-85
2022/05/06 03:56:18;;;;;;;30.38;23.60;;;;;;;12.86;66.68;100605.16;5052908;28;20021;-84
2022/05/06 03:58:44;;;;;;;28.42;22.83;;;;;;;12.87;66.58;100608.69;5035155;28;20036;-85
2022/05/06 04:01:10;;;;;;;24.30;20.10;;;;;;;12.87;66.25;100609.56;5052831;28;20417;-85
2022/05/06 04:03:36;;;;;;;19.77;17.65;;;;;;;12.81;65.80;100610.09;5053675;28;20032;-90
2022/05/06 04:06:01;;;;;;;22.52;19.40;;;;;;;12.80;66.46;100613.78;5036854;28;20033;-90
2022/05/06 04:08:27;;;;;;;22.20;19.20;;;;;;;12.81;66.59;100614.63;5036806;28;20029;-89
2022/05/06 04:10:53;;;;;;;24.33;21.00;;;;;;;12.80;66.81;100619.13;5053746;28;20028;-89
2022/05/06 04:13:19;;;;;;;26.83;22.17;;;;;;;12.81;66.31;100618.16;5036802;28;20032;-89
2022/05/06 04:15:45;;;;;;;25.88;22.60;;;;;;;12.79;66.71;100619.28;5053192;28;20080;-89
2022/05/06 04:18:11;;;;;;;27.80;22.65;;;;;;;12.80;66.00;100613.78;5036680;28;20059;-89
2022/05/06 04:23:29;;;;;;;26.80;22.23;;;;;;;12.91;66.19;100623.56;5053591;28;20039;-89
2022/05/06 04:26:01;;;;;;;28.38;22.98;;;;;;;13.04;66.57;100623.31;5053497;28;20025;-90
2022/05/06 04:28:28;;;;;;;32.55;25.55;;;;;;;13.05;66.96;100625.00;5036594;28;20060;-89
2022/05/06 04:30:53;;;;;;;33.17;26.80;;;;;;;13.05;67.64;100628.53;5053482;28;20089;-90
2022/05/06 04:33:20;;;;;;;35.42;26.13;;;;;;;13.11;67.86;100630.66;5053132;28;20036;-90
2022/05/06 04:35:46;;;;;;;35.30;26.98;;;;;;;13.18;68.27;100633.69;5053268;28;20111;-89
2022/05/06 04:38:11;;;;;;;37.75;27.58;;;;;;;13.22;68.77;100638.63;5052950;28;20057;-88
2022/05/06 04:40:37;;;;;;;40.78;28.02;;;;;;;13.18;69.51;100636.38;5036378;28;20029;-89
2022/05/06 04:43:05;;;;;;;41.92;28.92;;;;;;;13.18;70.19;100642.59;5036520;28;20032;-90
2022/05/06 04:45:31;;;;;;;43.22;28.85;;;;;;;13.19;71.74;100643.44;5036661;28;20371;-90
2022/05/06 04:47:57;;;;;;;39.03;28.77;;;;;;;13.27;71.63;100645.47;5035942;28;20028;-90
2022/05/06 04:50:22;;;;;;;45.50;30.23;;;;;;;13.27;72.56;100649.00;5036384;28;20027;-89
2022/05/06 04:52:49;;;;;;;41.08;28.73;;;;;;;13.23;72.57;100643.03;5052568;28;20068;-90
2022/05/06 04:55:15;;;;;;;44.45;29.90;;;;;;;13.25;72.87;100652.81;5036508;28;20025;-90
2022/05/06 04:57:40;;;;;;;46.13;30.73;;;;;;;13.18;73.14;100653.31;5036146;28;20017;-90
2022/05/06 05:00:06;;;;;;;39.45;27.50;;;;;;;13.21;73.88;100661.09;5036107;28;20021;-90
2022/05/06 05:02:32;;;;;;;32.63;24.42;;;;;;;13.29;74.07;100663.13;5035881;28;20467;-90
2022/05/06 05:04:58;;;;;;;32.28;24.80;;;;;;;13.30;74.22;100664.84;5035778;28;20021;-90
2022/05/06 05:07:24;;;;;;;31.80;23.55;;;;;;;13.27;75.06;100662.44;5051189;28;20033;-89
2022/05/06 05:09:50;;;;;;;31.08;24.95;;;;;;;13.32;74.70;100662.84;5035337;28;20156;-90
2022/05/06 05:12:16;;;;;;;32.33;24.77;;;;;;;13.34;74.61;100663.56;5031334;28;20452;-89
2022/05/06 05:14:41;;;;;;;32.30;25.25;;;;;;;13.34;75.19;100671.63;5047870;28;20466;-89
2022/05/06 05:17:08;;;;;;;32.80;25.83;;;;;;;13.40;75.18;100673.75;5032046;28;20270;-90
2022/05/06 05:19:34;;;;;;;33.25;24.70;;;;;;;13.48;74.88;100671.22;5024583;28;20109;-90
2022/05/06 05:21:59;;;;;;;33.30;25.02;;;;;;;13.44;74.68;100669.81;5028817;28;20121;-90
2022/05/06 05:24:24;;;;;;;31.63;24.08;;;;;;;13.47;74.77;100676.75;5035037;28;20368;-91
2022/05/06 05:26:50;;;;;;;29.88;23.70;;;;;;;13.53;74.49;100674.34;5049886;28;20021;-90
2022/05/06 05:29:15;;;;;;;31.17;24.33;;;;;;;13.45;75.02;100676.03;5047803;28;20024;-90
2022/05/06 05:31:40;;;;;;;28.00;21.65;;;;;;;13.43;75.11;100675.31;5034850;28;20071;-90
2022/05/06 05:34:06;;;;;;;30.52;23.13;;;;;;;13.44;75.21;100675.19;5052159;28;20021;-89
2022/05/06 05:36:31;;;;;;;26.88;22.15;;;;;;;13.46;75.38;100683.09;5051934;28;20060;-90
2022/05/06 05:38:56;;;;;;;27.05;20.88;;;;;;;13.54;75.94;100669.81;5051453;28;20020;-90
2022/05/06 05:41:22;;;;;;;26.25;20.58;;;;;;;13.56;74.82;100678.59;5035152;28;20082;-90
2022/05/06 05:49:15;;;;;;;26.15;20.42;;;;;;;13.47;75.09;100684.81;5051886;28;20106;-89
2022/05/06 05:51:41;;;;;;;26.02;20.98;;;;;;;13.44;75.34;100688.63;5026965;28;20071;-89
2022/05/06 05:54:06;;;;;;;27.45;21.75;;;;;;;13.48;75.82;100683.81;5033075;28;20096;-89
2022/05/06 05:56:32;;;;;;;25.55;20.33;;;;;;;13.49;75.70;100688.19;5031501;28;20020;-90
2022/05/06 05:58:57;;;;;;;27.13;22.13;;;;;;;13.45;76.29;100694.84;5033730;28;20033;-90
2022/05/06 06:01:22;;;;;;;26.35;21.35;;;;;;;13.46;76.00;100689.31;5050253;28;20407;-90
2022/05/06 06:03:48;;;;;;;27.58;22.63;;;;;;;13.49;76.02;100691.72;5050229;28;20024;-89
2022/05/06 06:06:13;;;;;;;25.25;20.40;;;;;;;13.58;75.73;100691.88;5030698;28;20025;-90
2022/05/06 06:08:38;;;;;;;28.90;21.65;;;;;;;13.57;75.74;100692.88;5033493;28;20422;-90
2022/05/06 06:11:04;;;;;;;27.42;21.83;;;;;;;13.50;76.45;100693.44;5034730;28;20386;-90
2022/05/06 06:13:32;;;;;;;28.20;22.55;;;;;;;13.48;75.73;100697.25;5034869;28;20463;-90
2022/05/06 06:15:58;;;;;;;26.88;21.30;;;;;;;13.52;76.08;100695.97;5035362;28;20036;-90
2022/05/06 06:18:27;;;;;;;26.52;22.33;;;;;;;13.62;75.76;100701.38;5034673;28;20033;-90
2022/05/06 06:20:56;;;;;;;25.13;20.98;;;;;;;13.64;76.01;100694.00;5034690;28;20031;-90
2022/05/06 06:23:21;;;;;;;28.40;21.90;;;;;;;13.55;76.55;100691.19;5032093;28;20037;-90
2022/05/06 06:25:47;;;;;;;29.23;23.50;;;;;;;13.49;77.07;100686.34;5031460;28;20048;-90
2022/05/06 06:28:12;;;;;;;28.33;22.60;;;;;;;13.48;77.57;100691.88;5034743;28;20025;-90
2022/05/06 06:30:37;;;;;;;26.70;21.70;;;;;;;13.58;77.38;100689.19;5034747;28;20040;-90
2022/05/06 06:33:03;;;;;;;25.35;22.15;;;;;;;13.59;77.46;100697.13;5034775;28;20028;-90
2022/05/06 06:35:28;;;;;;;28.75;23.77;;;;;;;13.50;77.61;100697.97;5034658;28;20283;-89
2022/05/06 06:37:54;;;;;;;25.85;22.15;;;;;;;13.47;77.80;100700.91;5033637;28;20090;-90
2022/05/06 06:40:19;;;;;;;27.02;22.13;;;;;;;13.36;77.69;100707.25;5034478;28;20029;-90
2022/05/06 06:42:46;;;;;;;27.17;21.77;;;;;;;13.37;78.15;100708.97;5033935;28;20028;-90
2022/05/06 06:45:11;;;;;;;27.02;22.75;;;;;;;13.48;78.21;100718.75;5035410;28;20029;-91
2022/05/06 06:47:37;;;;;;;26.60;21.90;;;;;;;13.56;78.00;100718.91;5034547;28;20032;-91
2022/05/06 06:50:03;;;;;;;28.58;22.48;;;;;;;13.62;77.75;100722.88;5035360;28;20028;-91
2022/05/06 06:52:28;;;;;;;28.42;23.00;;;;;;;13.61;77.94;100731.91;5032893;28;20029;-91
2022/05/06 06:54:53;;;;;;;27.13;22.08;;;;;;;13.65;77.55;100727.97;5035989;28;20029;-90
2022/05/06 06:57:22;;;;;;;29.52;22.73;;;;;;;13.74;78.07;100721.78;5051586;28;20025;-90
2022/05/06 06:59:47;;;;;;;30.38;23.15;;;;;;;13.83;77.31;100729.00;5032594;28;20052;-91
2022/05/06 07:02:12;;;;;;;29.40;22.95;;;;;;;13.78;77.35;100724.06;5035573;28;20383;-90
2022/05/06 07:04:38;;;;;;;29.30;23.00;;;;;;;13.86;77.18;100718.81;5051941;28;20108;-92
2022/05/06 07:12:31;;;;;;;30.92;23.58;;;;;;;13.95;77.41;100730.56;5049976;28;20063;-89
2022/05/06 07:14:56;;;;;;;31.73;23.88;;;;;;;13.97;77.60;100727.75;5032444;28;20055;-89
2022/05/06 07:17:22;;;;;;;31.15;24.23;;;;;;;13.95;77.30;100719.81;5032394;28;20115;-89
2022/05/06 07:19:48;;;;;;;29.85;23.35;;;;;;;13.97;77.82;100727.75;5032565;28;20467;-91
2022/05/06 07:22:13;;;;;;;31.33;23.95;;;;;;;13.95;78.19;100724.34;5031905;28;20475;-89
2022/05/06 07:24:39;;;;;;;32.38;25.10;;;;;;;13.97;77.74;100725.06;5035369;28;20045;-89
2022/05/06 07:27:04;;;;;;;30.20;24.25;;;;;;;13.95;77.67;100735.94;5035400;28;20364;-89
2022/05/06 07:29:31;;;;;;;31.40;24.85;;;;;;;13.96;78.13;100742.19;5052261;28;20029;-90
2022/05/06 07:31:56;;;;;;;31.50;24.80;;;;;;;13.99;77.63;100732.00;5053715;28;20052;-90
2022/05/06 07:34:22;;;;;;;32.92;24.25;;;;;;;14.03;78.58;100733.41;5039190;28;20644;-89
2022/05/06 07:36:47;;;;;;;32.58;25.95;;;;;;;14.07;77.57;100736.66;5038884;28;20035;-91
2022/05/06 07:39:14;;;;;;;33.92;25.48;;;;;;;14.08;77.32;100735.66;5055816;28;20025;-89
2022/05/06 07:41:40;;;;;;;33.53;25.58;;;;;;;14.09;78.01;100737.38;5039113;28;20120;-90
2022/05/06 07:44:07;;;;;;;32.70;25.60;;;;;;;14.11;77.82;100740.75;5039232;28;20083;-90
2022/05/06 07:46:33;;;;;;;32.22;25.33;;;;;;;14.16;77.75;100733.97;5039032;28;20032;-90
2022/05/06 07:48:59;;;;;;;34.60;27.00;;;;;;;14.12;77.99;100734.41;5055539;28;20375;-90
2022/05/06 07:51:24;;;;;;;33.00;25.25;;;;;;;14.13;77.89;100744.16;5038834;28;20017;-89
2022/05/06 07:53:52;;;;;;;33.33;26.42;;;;;;;14.18;77.57;100736.50;5038903;28;20021;-90
2022/05/06 07:56:18;;;;;;;34.13;24.92;;;;;;;14.25;77.62;100745.75;5039098;28;20055;-89
2022/05/06 07:58:43;;;;;;;34.13;25.88;;;;;;;14.22;77.64;100740.66;5038765;28;20017;-89
2022/05/06 08:01:11;;;;;;;33.80;26.05;;;;;;;14.27;77.41;100740.22;5038645;28;20094;-89
2022/05/06 08:06:20;;;;;;;33.97;26.50;;;;;;;14.35;77.23;100733.13;5054079;28;20110;-90
2022/05/06 08:08:45;;;;;;;32.95;25.55;;;;;;;14.38;76.80;100732.00;5037707;28;20029;-89
2022/05/06 08:11:11;;;;;;;34.30;26.88;;;;;;;14.40;77.01;100732.69;5054144;28;20083;-89
2022/05/06 08:13:36;;;;;;;35.95;27.38;;;;;;;14.42;76.89;100736.97;5037925;28;20373;-89
2022/05/06 08:16:02;;;;;;;33.83;26.10;;;;;;;14.39;77.86;100739.06;5038308;28;20029;-89
2022/05/06 08:18:28;;;;;;;36.83;27.80;;;;;;;14.30;77.34;100731.88;5038162;28;20396;-88
2022/05/06 08:20:53;;;;;;;36.65;27.65;;;;;;;14.33;77.48;100728.88;5037889;28;20028;-89
2022/05/06 08:23:22;;;;;;;35.72;26.70;;;;;;;14.33;77.93;100726.19;5038417;28;20523;-90
2022/05/06 08:25:49;;;;;;;38.35;28.63;;;;;;;14.33;77.44;100731.56;5038498;28;20037;-90
2022/05/06 08:28:15;;;;;;;34.20;26.90;;;;;;;14.29;77.70;100725.63;5038117;28;20028;-89
2022/05/06 08:30:41;;;;;;;36.25;26.92;;;;;;;14.27;77.63;100729.47;5055435;28;20025;-90
2022/05/06 08:33:06;;;;;;;34.22;26.52;;;;;;;14.28;77.25;100737.38;5037684;28;20029;-89
2022/05/06 08:35:32;;;;;;;34.85;27.08;;;;;;;14.25;77.64;100737.69;5053540;28;20032;-90
2022/05/06 08:37:58;;;;;;;35.63;27.38;;;;;;;14.28;77.38;100732.00;5037695;28;20025;-89
2022/05/06 08:40:31;;;;;;;34.35;27.77;;;;;;;14.30;77.71;100731.88;5037831;28;20020;-91
2022/05/06 08:42:57;;;;;;;37.65;28.67;;;;;;;14.23;77.90;100726.22;5037858;28;20429;-89
2022/05/06 08:50:53;;;;;;;37.35;29.42;;;;;;;14.20;78.15;100722.94;5055826;28;20116;-95
2022/05/06 08:53:25;;;;;;;37.63;29.33;;;;;;;14.23;78.49;100733.44;5038296;28;20037;-94
2022/05/06 08:55:52;;;;;;;38.53;28.67;;;;;;;14.21;78.61;100735.41;5054812;28;20115;-96
2022/05/06 08:58:40;;;;;;;36.70;27.95;;;;;;;14.22;78.58;100729.88;5038057;28;20025;-92
2022/05/06 09:01:11;;;;;;;35.58;27.70;;;;;;;14.25;78.57;100737.69;5038050;28;20033;-96
2022/05/06 09:03:40;;;;;;;36.53;27.02;;;;;;;14.31;78.93;100736.25;5037706;28;20025;-90
2022/05/06 09:06:16;;;;;;;45.20;30.52;;;;;;;14.33;78.81;100735.13;5037403;28;20700;-91
2022/05/06 09:08:43;;;;;;;38.67;27.73;;;;;;;14.35;78.45;100741.19;5037506;28;20367;-91
2022/05/06 09:11:08;;;;;;;36.25;27.05;;;;;;;14.36;78.14;100732.13;5053785;28;20032;-90
2022/05/06 09:13:49;;;;;;;37.40;27.92;;;;;;;14.44;77.83;100736.84;5037187;28;20025;-90
2022/05/06 09:16:39;;;;;;;36.92;28.00;;;;;;;14.42;77.58;100733.41;5053872;28;20115;-91
2022/05/06 09:19:19;;;;;;;36.55;27.90;;;;;;;14.48;77.74;100733.72;5054115;28;20020;-90
2022/05/06 09:22:05;;;;;;;35.35;28.17;;;;;;;14.54;78.38;100734.13;5041392;28;20084;-90
2022/05/06 09:24:31;;;;;;;38.00;29.13;;;;;;;14.55;78.83;100731.28;5017461;28;20029;-91
2022/05/06 09:27:09;;;;;;;38.28;27.85;;;;;;;14.54;78.47;100732.28;5015915;28;20507;-90
2022/05/06 09:29:44;;;;;;;30.67;25.08;;;;;;;14.58;78.63;100722.91;5033043;28;20089;-91
2022/05/06 09:32:23;;;;;;;35.45;28.05;;;;;;;14.61;77.81;100733.41;5015665;28;20033;-90
2022/05/06 09:34:54;;;;;;;33.92;26.05;;;;;;;14.58;77.15;100735.53;5015231;28;20025;-91
2022/05/06 09:37:39;;;;;;;33.38;25.70;;;;;;;14.64;77.00;100726.88;5015695;28;20187;-90
2022/05/06 09:40:05;;;;;;;32.45;24.13;;;;;;;14.67;77.05;100722.09;5016393;28;20022;-90
2022/05/06 09:42:32;;;;;;;36.28;26.48;;;;;;;14.72;76.48;100730.56;5032884;28;20167;-90
2022/05/06 09:44:59;;;;;;;33.80;26.33;;;;;;;14.71;76.40;100718.09;5015901;28;20116;-90
2022/05/06 09:47:25;;;;;;;34.80;26.58;;;;;;;14.70;76.12;100721.78;5015905;28;20021;-90
2022/05/06 09:49:52;;;;;;;34.65;25.10;;;;;;;14.75;76.50;100716.81;5015949;28;20026;-90
2022/05/06 09:52:17;;;;;;;32.78;25.38;;;;;;;14.80;77.01;100719.06;5016167;28;20427;-89
2022/05/06 09:54:44;;;;;;;34.22;26.02;;;;;;;14.85;76.75;100707.84;5015622;28;20022;-90
2022/05/06 09:57:11;;;;;;;29.67;23.60;;;;;;;14.88;76.03;100712.94;5015691;28;20030;-90
2022/05/06 09:59:37;;;;;;;30.45;22.98;;;;;;;14.83;74.97;100715.22;5016535;28;20057;-90
2022/05/06 10:02:08;;;;;;;29.92;22.33;;;;;;;14.82;74.21;100709.00;5016129;28;20053;-90
2022/05/06 10:04:36;;;;;;;28.15;20.98;;;;;;;14.80;73.85;100716.38;5016607;28;20112;-89
2022/05/06 10:07:05;;;;;;;26.60;19.42;;;;;;;14.80;72.68;100710.97;5016057;28;20032;-90
2022/05/06 10:09:35;;;;;;;28.88;20.70;;;;;;;14.85;72.03;100706.00;5032548;28;20037;-89
2022/05/06 10:12:03;;;;;;;31.13;23.15;;;;;;;14.90;72.69;100708.25;5015772;28;20048;-90
2022/05/06 10:14:29;;;;;;;34.37;24.20;;;;;;;14.89;72.10;100714.63;5015684;28;20073;-91
2022/05/06 10:16:54;;;;;;;32.22;24.75;;;;;;;14.91;72.81;100707.25;5015438;28;20436;-94
2022/05/06 10:19:27;;;;;;;34.53;26.13;;;;;;;14.96;73.42;100707.66;5023230;28;20028;-91
2022/05/06 10:21:53;;;;;;;32.30;25.00;;;;;;;15.01;73.77;100702.69;5040289;28;20201;-92
2022/05/06 10:24:20;;;;;;;32.10;23.17;;;;;;;15.04;73.45;100692.44;5040874;28;20029;-90
2022/05/06 10:26:53;;;;;;;33.40;24.35;;;;;;;15.10;73.58;100699.09;5038033;28;20147;-93
2022/05/06 10:32:26;;;;;;;31.27;22.95;;;;;;;15.18;71.80;100695.69;5062239;28;20498;-93
2022/05/06 10:34:55;;;;;;;30.55;22.52;;;;;;;15.12;71.21;100683.63;5039728;28;20355;-90
2022/05/06 10:37:20;;;;;;;30.38;21.38;;;;;;;15.12;70.84;100683.63;5053200;28;20033;-91
2022/05/06 10:39:46;;;;;;;29.25;22.63;;;;;;;15.12;70.32;100681.78;5037360;28;20162;-89
2022/05/06 10:42:31;;;;;;;28.10;21.45;;;;;;;15.19;69.93;100683.91;5036797;28;20155;-94
2022/05/06 10:44:56;;;;;;;30.77;22.17;;;;;;;15.19;69.74;100683.91;5044983;28;20163;-95
2022/05/06 10:47:22;;;;;;;29.85;22.30;;;;;;;15.25;69.82;100692.22;5047776;28;20120;-95
2022/05/06 10:49:52;;;;;;;31.58;24.30;;;;;;;15.27;70.33;100681.31;5060411;28;20029;-93
2022/05/06 10:52:28;;;;;;;33.33;22.50;;;;;;;15.36;70.78;100678.56;5043804;28;20078;-95
2022/05/06 10:55:02;;;;;;;33.63;24.20;;;;;;;15.40;69.61;100684.50;5065204;28;20025;-93
2022/05/06 10:57:30;;;;;;;29.50;20.90;;;;;;;15.46;67.76;100688.41;5053951;28;20025;-95
2022/05/06 10:59:57;;;;;;;31.13;21.55;;;;;;;15.42;67.20;100675.25;5042223;28;20025;-90
2022/05/06 11:02:29;;;;;;;26.40;19.98;;;;;;;15.41;68.16;100670.00;5052259;28;20071;-93
2022/05/06 11:05:01;;;;;;;31.80;23.00;;;;;;;15.44;68.08;100675.94;5036438;28;20051;-94
2022/05/06 11:07:28;;;;;;;29.05;20.65;;;;;;;15.42;68.17;100674.41;5058627;28;20036;-94
2022/05/06 11:09:53;;;;;;;29.27;21.23;;;;;;;15.41;68.22;100675.41;5058727;28;20044;-94
2022/05/06 11:12:47;;;;;;;30.13;22.13;;;;;;;15.50;67.33;100679.03;5048087;28;20115;-94
2022/05/06 11:15:17;;;;;;;29.83;22.40;;;;;;;15.52;67.12;100674.34;5005772;28;1134190;-95
2022/05/06 11:17:44;;;;;;;33.15;22.98;;;;;;;15.52;67.25;100675.19;5048537;28;20282;-95
2022/05/06 11:20:16;;;;;;;28.42;21.13;;;;;;;15.51;66.23;100665.41;5043205;28;20044;-90
2022/05/06 11:23:09;;;;;;;31.77;20.50;;;;;;;15.55;67.26;100672.19;5056134;28;20048;-93
2022/05/06 11:25:45;;;;;;;29.02;22.15;;;;;;;15.65;66.71;100666.78;5039272;28;20028;-91
2022/05/06 11:28:20;;;;;;;29.73;21.45;;;;;;;15.65;65.96;100666.78;5039267;28;20048;-89
2022/05/06 11:30:50;;;;;;;28.58;22.05;;;;;;;15.72;66.32;100662.47;5039571;28;20082;-92
2022/05/06 11:33:34;;;;;;;28.52;21.13;;;;;;;15.79;65.88;100658.16;5040450;28;20048;-93
2022/05/06 11:36:01;;;;;;;25.80;19.75;;;;;;;15.81;65.11;100668.78;5042498;28;20082;-91
2022/05/06 11:38:37;;;;;;;26.20;21.17;;;;;;;15.86;64.27;100664.63;5040991;28;20025;-95
2022/05/06 11:41:10;;;;;;;23.27;17.85;;;;;;;15.81;65.11;100660.69;5056435;28;20028;-92